createdAt,value
2019-04-14T00:01:07.033Z,11.72
2019-04-14T00:03:41.177Z,11.64
2019-04-14T00:06:11.281Z,11.54
2019-04-14T00:08:41.583Z,11.48
2019-04-14T00:11:10.978Z,11.45
2019-04-14T00:13:41.283Z,11.41
2019-04-14T00:16:11.746Z,11.38
2019-04-14T00:18:42.314Z,11.35
2019-04-14T00:21:12.944Z,11.39
2019-04-14T00:23:43.482Z,11.31
2019-04-14T00:26:31.527Z,11.32
2019-04-14T00:29:02.496Z,11.25
2019-04-14T00:31:32.875Z,11.17
2019-04-14T00:34:05.146Z,11.19
2019-04-14T00:36:52.577Z,11.07
2019-04-14T00:39:27.292Z,11.10
2019-04-14T00:42:14.885Z,11.03
2019-04-14T00:44:45.899Z,10.99
2019-04-14T00:49:57.448Z,11.03
2019-04-14T00:52:27.609Z,10.98
2019-04-14T00:54:57.197Z,10.91
2019-04-14T00:57:26.874Z,10.90
2019-04-14T00:59:57.316Z,10.89
2019-04-14T01:02:27.549Z,10.88
2019-04-14T01:04:57.705Z,10.78
2019-04-14T01:07:28.274Z,10.85
2019-04-14T01:09:57.822Z,10.73
2019-04-14T01:12:27.813Z,10.74
2019-04-14T01:14:58.221Z,10.67
2019-04-14T01:17:28.646Z,10.71
2019-04-14T01:19:59.179Z,10.68
2019-04-14T01:22:29.265Z,10.60
2019-04-14T01:24:59.930Z,10.63
2019-04-14T01:27:29.910Z,10.66
2019-04-14T01:30:00.340Z,10.66
2019-04-14T01:32:30.482Z,10.60
2019-04-14T01:35:00.991Z,10.68
2019-04-14T01:37:31.156Z,10.69
2019-04-14T01:40:01.019Z,10.76
2019-04-14T01:42:31.053Z,10.82
2019-04-14T01:45:01.410Z,10.59
2019-04-14T01:47:31.358Z,10.47
2019-04-14T01:50:01.798Z,10.48
2019-04-14T01:58:14.395Z,10.55
2019-04-14T02:00:51.367Z,10.54
2019-04-14T02:03:21.721Z,10.78
2019-04-14T02:05:51.733Z,10.85
2019-04-14T02:08:21.992Z,10.64
2019-04-14T02:10:52.043Z,10.72
2019-04-14T02:13:22.528Z,10.83
2019-04-14T02:15:52.848Z,10.88
2019-04-14T02:18:22.942Z,10.99
2019-04-14T02:20:53.615Z,11.11
2019-04-14T02:23:23.636Z,11.17
2019-04-14T02:25:53.616Z,11.17
2019-04-14T02:28:24.212Z,11.15
2019-04-14T02:31:09.062Z,11.19
2019-04-14T02:33:50.400Z,11.06
2019-04-14T02:39:01.822Z,11.13
2019-04-14T02:41:30.018Z,11.20
2019-04-14T02:44:16.107Z,11.29
2019-04-14T02:46:31.814Z,11.29
2019-04-14T02:48:55.383Z,11.33
2019-04-14T02:51:33.708Z,11.24
2019-04-14T03:01:48.257Z,11.34
2019-04-14T03:04:04.161Z,11.36
2019-04-14T03:06:38.019Z,11.36
2019-04-14T03:09:19.486Z,11.39
2019-04-14T03:11:38.109Z,11.38
2019-04-14T03:17:16.199Z,11.38
2019-04-14T03:22:33.000Z,11.12
2019-04-14T03:27:56.570Z,11.16
2019-04-14T03:33:18.060Z,11.24
2019-04-14T03:38:18.307Z,11.35
2019-04-14T03:40:34.334Z,11.38
2019-04-14T03:45:46.774Z,11.35
2019-04-14T03:48:36.516Z,11.37
2019-04-14T03:50:37.393Z,11.42
2019-04-14T03:55:52.137Z,11.43
2019-04-14T03:58:18.259Z,11.23
2019-04-14T04:00:49.160Z,11.09
2019-04-14T04:03:19.627Z,10.96
2019-04-14T04:05:49.958Z,11.03
2019-04-14T04:08:20.143Z,11.15
2019-04-14T04:10:55.318Z,11.28
2019-04-14T04:13:25.956Z,11.30
2019-04-14T04:15:58.306Z,11.30
2019-04-14T04:18:30.979Z,11.11
2019-04-14T04:21:03.107Z,11.14
2019-04-14T04:23:49.626Z,11.27
2019-04-14T04:26:36.576Z,11.35
2019-04-14T04:29:07.693Z,11.35
2019-04-14T04:31:48.300Z,11.36
2019-04-14T04:34:25.405Z,11.32
2019-04-14T04:36:57.481Z,11.30
2019-04-14T04:42:11.288Z,11.21
2019-04-14T04:44:42.030Z,11.17
2019-04-14T04:47:12.342Z,11.24
2019-04-14T04:49:42.624Z,11.32
2019-04-14T04:52:13.959Z,11.38
2019-04-14T04:54:43.232Z,11.43
2019-04-14T04:57:13.388Z,11.40
2019-04-14T04:59:43.066Z,11.35
2019-04-14T05:02:13.456Z,11.35
2019-04-14T05:04:43.834Z,11.30
2019-04-14T05:07:14.387Z,11.20
2019-04-14T05:09:49.105Z,11.29
2019-04-14T05:12:26.326Z,11.41
2019-04-14T05:17:39.429Z,11.57
2019-04-14T05:20:09.545Z,11.61
2019-04-14T05:22:39.788Z,11.51
2019-04-14T05:25:10.094Z,11.66
2019-04-14T05:27:40.823Z,11.73
2019-04-14T05:30:11.196Z,11.72
2019-04-14T05:32:41.285Z,11.73
2019-04-14T05:35:11.929Z,11.76
2019-04-14T05:37:42.113Z,11.72
2019-04-14T05:40:12.397Z,11.59
2019-04-14T05:42:42.729Z,11.49
2019-04-14T05:45:13.259Z,11.57
2019-04-14T05:47:43.636Z,11.49
2019-04-14T05:50:13.703Z,11.64
2019-04-14T05:52:43.120Z,11.72
2019-04-14T05:55:13.469Z,11.47
2019-04-14T05:57:43.794Z,11.46
2019-04-14T06:00:16.653Z,11.38
2019-04-14T06:02:46.350Z,11.57
2019-04-14T06:05:16.604Z,11.72
2019-04-14T06:07:44.854Z,11.73
2019-04-14T06:10:14.285Z,11.66
2019-04-14T06:12:43.699Z,11.71
2019-04-14T06:15:13.324Z,11.58
2019-04-14T06:17:42.681Z,11.58
2019-04-14T06:20:12.353Z,11.76
2019-04-14T06:22:41.791Z,11.88
2019-04-14T06:25:11.614Z,11.82
2019-04-14T06:27:41.067Z,11.92
2019-04-14T06:30:18.112Z,12.02
2019-04-14T06:32:48.463Z,12.14
2019-04-14T06:35:36.016Z,12.07
2019-04-14T06:38:06.999Z,12.10
2019-04-14T06:40:37.996Z,11.94
2019-04-14T06:43:07.426Z,11.94
2019-04-14T06:45:36.845Z,12.03
2019-04-14T06:48:06.275Z,11.97
2019-04-14T06:50:35.710Z,11.88
2019-04-14T06:53:05.078Z,11.87
2019-04-14T06:55:34.504Z,12.14
2019-04-14T06:58:03.929Z,12.21
2019-04-14T07:00:33.333Z,12.21
2019-04-14T07:03:02.769Z,12.20
2019-04-14T07:05:32.182Z,12.15
2019-04-14T07:08:01.604Z,12.11
2019-04-14T07:10:31.019Z,12.16
2019-04-14T07:13:00.453Z,12.18
2019-04-14T07:15:29.810Z,12.40
2019-04-14T07:17:59.165Z,12.46
2019-04-14T07:20:28.525Z,12.39
2019-04-14T07:22:57.916Z,12.31
2019-04-14T07:25:27.336Z,12.53
2019-04-14T07:27:56.773Z,12.62
2019-04-14T07:30:30.505Z,12.75
2019-04-14T07:36:00.200Z,12.56
2019-04-14T07:38:31.192Z,12.69
2019-04-14T07:41:18.597Z,12.78
2019-04-14T07:43:55.892Z,12.78
2019-04-14T07:46:30.019Z,12.95
2019-04-14T07:52:01.329Z,13.39
2019-04-14T07:54:41.107Z,13.09
2019-04-14T07:57:11.138Z,13.43
2019-04-14T07:59:42.140Z,13.46
2019-04-14T08:02:16.068Z,13.90
2019-04-14T08:04:47.092Z,13.96
2019-04-14T08:07:16.627Z,14.20
2019-04-14T08:09:46.001Z,14.15
2019-04-14T08:12:15.428Z,14.28
2019-04-14T08:14:44.812Z,14.35
2019-04-14T08:17:14.152Z,14.31
2019-04-14T08:19:43.566Z,14.31
2019-04-14T08:22:13.013Z,14.41
2019-04-14T08:24:42.508Z,14.41
2019-04-14T08:27:11.929Z,14.58
2019-04-14T08:29:41.289Z,14.68
2019-04-14T08:32:10.645Z,14.77
2019-04-14T08:34:40.040Z,15.05
2019-04-14T08:37:09.395Z,15.09
2019-04-14T08:39:38.795Z,15.45
2019-04-14T08:42:12.679Z,15.09
2019-04-14T08:47:23.201Z,15.09
2019-04-14T08:49:54.716Z,15.22
2019-04-14T08:52:25.959Z,15.34
2019-04-14T08:55:00.400Z,15.57
2019-04-14T08:57:34.794Z,15.51
2019-04-14T09:00:13.598Z,15.82
2019-04-14T09:02:47.805Z,16.22
2019-04-14T09:05:18.822Z,16.40
2019-04-14T09:07:53.033Z,16.83
2019-04-14T09:10:24.149Z,17.08
2019-04-14T09:12:55.145Z,17.07
2019-04-14T09:15:24.575Z,17.32
2019-04-14T09:17:54.002Z,17.64
2019-04-14T09:20:23.437Z,17.89
2019-04-14T09:22:52.919Z,18.18
2019-04-14T09:25:22.375Z,18.04
2019-04-14T09:27:51.814Z,18.08
2019-04-14T09:30:21.262Z,18.54
2019-04-14T09:32:50.658Z,18.54
2019-04-14T09:35:20.140Z,18.50
2019-04-14T09:37:49.589Z,18.50
2019-04-14T09:40:19.070Z,19.19
2019-04-14T09:42:48.407Z,19.80
2019-04-14T09:45:17.840Z,20.13
2019-04-14T09:47:47.308Z,20.05
2019-04-14T09:50:18.192Z,20.73
2019-04-14T09:52:47.822Z,20.73
2019-04-14T09:55:17.423Z,20.88
2019-04-14T09:57:46.775Z,21.18
2019-04-14T10:00:16.920Z,21.05
2019-04-14T10:02:46.421Z,21.29
2019-04-14T10:05:15.887Z,20.74
2019-04-14T10:07:45.339Z,20.81
2019-04-14T10:10:14.773Z,20.76
2019-04-14T10:12:44.198Z,21.26
2019-04-14T10:15:16.616Z,21.34
2019-04-14T10:17:46.179Z,21.16
2019-04-14T10:20:15.649Z,21.01
2019-04-14T10:22:44.975Z,21.05
2019-04-14T10:25:14.465Z,21.49
2019-04-14T10:27:43.916Z,22.32
2019-04-14T10:30:13.333Z,22.29
2019-04-14T10:32:42.683Z,21.30
2019-04-14T10:35:12.130Z,21.10
2019-04-14T10:37:41.538Z,21.10
2019-04-14T10:40:11.095Z,21.61
2019-04-14T10:42:40.564Z,22.33
2019-04-14T10:45:09.905Z,22.09
2019-04-14T10:47:39.472Z,21.35
2019-04-14T10:50:08.963Z,21.34
2019-04-14T10:52:38.448Z,20.49
2019-04-14T10:55:09.172Z,21.28
2019-04-14T11:00:09.477Z,21.75
2019-04-14T11:02:38.946Z,22.10
2019-04-14T11:05:08.457Z,22.10
2019-04-14T11:07:37.954Z,21.14
2019-04-14T11:10:09.251Z,21.14
2019-04-14T11:12:38.773Z,20.94
2019-04-14T11:15:10.681Z,20.99
2019-04-14T11:17:40.240Z,20.75
2019-04-14T11:20:10.461Z,20.79
2019-04-14T11:22:39.933Z,20.29
2019-04-14T11:25:09.384Z,20.02
2019-04-14T11:27:38.842Z,19.52
2019-04-14T11:30:09.951Z,19.62
2019-04-14T11:32:40.916Z,19.62
2019-04-14T11:35:11.919Z,19.15
2019-04-14T11:37:57.881Z,19.09
2019-04-14T11:40:34.884Z,19.14
2019-04-14T11:43:04.227Z,19.31
2019-04-14T11:45:33.661Z,19.18
2019-04-14T11:48:03.214Z,19.48
2019-04-14T11:50:33.679Z,19.41
2019-04-14T11:53:03.039Z,19.43
2019-04-14T11:55:32.595Z,19.21
2019-04-14T11:58:01.972Z,19.21
2019-04-14T12:00:39.094Z,19.56
2019-04-14T12:03:25.404Z,19.91
2019-04-14T12:05:59.345Z,20.56
2019-04-14T12:08:46.572Z,21.14
2019-04-14T12:11:16.059Z,20.71
2019-04-14T12:13:46.857Z,19.90
2019-04-14T12:16:18.321Z,19.90
2019-04-14T12:18:47.374Z,20.33
2019-04-14T12:21:16.752Z,20.35
2019-04-14T12:23:46.154Z,20.35
2019-04-14T12:26:15.690Z,19.62
2019-04-14T12:28:45.148Z,19.51
2019-04-14T12:31:35.341Z,19.15
2019-04-14T12:34:04.705Z,19.40
2019-04-14T12:36:34.081Z,19.04
2019-04-14T12:39:05.034Z,19.04
2019-04-14T12:41:36.021Z,19.39
2019-04-14T12:44:07.064Z,19.39
2019-04-14T12:46:54.593Z,19.18
2019-04-14T12:49:25.579Z,18.74
2019-04-14T12:51:56.585Z,18.87
2019-04-14T12:54:27.203Z,18.69
2019-04-14T12:56:56.602Z,18.86
2019-04-14T12:59:26.348Z,18.86
2019-04-14T13:02:13.480Z,18.77
2019-04-14T13:04:42.989Z,20.17
2019-04-14T13:07:12.420Z,20.80
2019-04-14T13:09:41.860Z,20.80
2019-04-14T13:12:11.299Z,20.82
2019-04-14T13:14:40.804Z,20.34
2019-04-14T13:17:10.242Z,18.37
2019-04-14T13:19:39.705Z,18.37
2019-04-14T13:22:09.071Z,17.65
2019-04-14T13:24:38.511Z,16.37
2019-04-14T13:27:07.984Z,16.37
2019-04-14T13:29:37.341Z,16.18
2019-04-14T13:32:07.186Z,16.20
2019-04-14T13:34:36.654Z,15.97
2019-04-14T13:37:06.031Z,16.01
2019-04-14T13:39:35.444Z,16.02
2019-04-14T13:42:04.794Z,16.02
2019-04-14T13:44:34.291Z,16.04
2019-04-14T13:47:03.729Z,16.04
2019-04-14T13:49:33.068Z,16.08
2019-04-14T13:52:02.412Z,16.21
2019-04-14T13:54:31.831Z,16.21
2019-04-14T13:57:01.184Z,16.17
2019-04-14T13:59:30.542Z,16.32
2019-04-14T14:02:01.700Z,16.44
2019-04-14T14:04:31.064Z,16.46
2019-04-14T14:07:00.513Z,16.40
2019-04-14T14:09:29.928Z,16.69
2019-04-14T14:12:00.951Z,16.63
2019-04-14T14:14:37.713Z,16.47
2019-04-14T14:17:11.402Z,16.67
2019-04-14T14:19:45.148Z,16.25
2019-04-14T14:25:02.406Z,15.89
2019-04-14T14:27:31.745Z,15.55
2019-04-14T14:30:01.109Z,15.49
2019-04-14T14:32:34.998Z,15.23
2019-04-14T14:35:06.214Z,15.23
2019-04-14T14:37:35.542Z,14.89
2019-04-14T14:40:06.710Z,14.50
2019-04-14T14:42:36.071Z,14.30
2019-04-14T14:45:08.893Z,13.84
2019-04-14T14:47:38.345Z,13.61
2019-04-14T14:50:09.434Z,13.48
2019-04-14T14:52:39.761Z,13.24
2019-04-14T14:55:09.308Z,13.13
2019-04-14T14:57:38.688Z,13.02
2019-04-14T15:00:11.110Z,12.94
2019-04-14T15:02:40.521Z,12.88
2019-04-14T15:05:10.047Z,13.05
2019-04-14T15:07:39.504Z,12.92
2019-04-14T15:10:08.941Z,12.80
2019-04-14T15:12:38.362Z,12.85
2019-04-14T15:15:08.086Z,12.81
2019-04-14T15:17:37.523Z,12.63
2019-04-14T15:20:06.886Z,12.63
2019-04-14T15:22:36.505Z,12.55
2019-04-14T15:25:06.333Z,12.45
2019-04-14T15:27:35.679Z,12.49
2019-04-14T15:30:08.878Z,12.58
2019-04-14T15:32:38.303Z,12.64
2019-04-14T15:35:07.737Z,12.65
2019-04-14T15:37:37.080Z,12.60
2019-04-14T15:40:07.612Z,12.65
2019-04-14T15:42:36.967Z,12.64
2019-04-14T15:45:06.974Z,12.66
2019-04-14T15:47:36.319Z,12.69
2019-04-14T15:50:07.360Z,12.62
2019-04-14T15:52:36.705Z,12.59
2019-04-14T15:55:06.547Z,12.56
2019-04-14T15:57:37.515Z,12.59
2019-04-14T16:00:12.770Z,12.48
2019-04-14T16:05:36.582Z,12.68
2019-04-14T16:08:07.562Z,12.65
2019-04-14T16:13:29.738Z,12.67
2019-04-14T16:16:03.624Z,12.70
2019-04-14T16:18:34.651Z,12.73
2019-04-14T16:21:04.495Z,12.84
2019-04-14T16:23:33.864Z,12.78
2019-04-14T16:26:07.541Z,12.71
2019-04-14T16:28:38.579Z,12.81
2019-04-14T16:31:24.949Z,12.74
2019-04-14T16:34:02.129Z,12.73
2019-04-14T16:36:31.582Z,12.66
2019-04-14T16:39:00.940Z,12.72
2019-04-14T16:41:30.399Z,12.81
2019-04-14T16:43:59.829Z,12.83
2019-04-14T16:46:29.307Z,12.84
2019-04-14T16:48:58.660Z,12.92
2019-04-14T16:51:31.826Z,12.91
2019-04-14T16:54:03.494Z,12.83
2019-04-14T16:56:34.673Z,12.80
2019-04-14T16:59:05.717Z,12.97
2019-04-14T17:01:36.728Z,12.92
2019-04-14T17:04:06.161Z,12.85
2019-04-14T17:06:35.594Z,12.72
2019-04-14T17:09:07.326Z,12.64
2019-04-14T17:11:36.676Z,12.67
2019-04-14T17:14:07.711Z,12.58
2019-04-14T17:16:45.874Z,12.55
2019-04-14T17:24:43.205Z,12.42
2019-04-14T17:27:14.239Z,12.39
2019-04-14T17:29:51.304Z,12.45
2019-04-14T17:32:22.319Z,12.47
2019-04-14T17:34:54.127Z,12.55
2019-04-14T17:37:41.569Z,12.44
2019-04-14T17:40:12.711Z,12.38
2019-04-14T17:45:36.594Z,12.31
2019-04-14T17:48:07.625Z,12.29
2019-04-14T17:53:33.530Z,12.11
2019-04-14T18:04:16.378Z,12.14
2019-04-14T18:06:50.344Z,12.13
2019-04-14T18:09:21.372Z,12.15
2019-04-14T18:12:04.363Z,12.06
2019-04-14T18:14:47.234Z,12.14
2019-04-14T18:17:30.524Z,12.22
2019-04-14T18:20:01.586Z,12.17
2019-04-14T18:22:30.952Z,12.17
2019-04-14T18:25:00.424Z,12.14
2019-04-14T18:27:31.428Z,12.12
2019-04-14T18:30:02.487Z,12.16
2019-04-14T18:32:33.565Z,12.14
2019-04-14T18:35:07.724Z,12.20
2019-04-14T18:43:13.943Z,12.02
2019-04-14T18:45:53.974Z,12.01
2019-04-14T18:51:20.921Z,12.00
2019-04-14T18:54:04.148Z,11.93
2019-04-14T18:56:51.403Z,11.95
2019-04-14T18:59:31.226Z,11.88
2019-04-14T19:02:01.658Z,11.86
2019-04-14T19:04:31.133Z,11.87
2019-04-14T19:07:00.676Z,11.81
2019-04-14T19:09:30.105Z,11.82
2019-04-14T19:12:01.124Z,11.76
2019-04-14T19:14:32.122Z,11.82
2019-04-14T19:20:02.026Z,11.64
2019-04-14T19:22:26.918Z,11.64
2019-04-14T19:25:07.282Z,11.60
2019-04-14T19:27:27.458Z,11.59
2019-04-14T19:29:56.826Z,11.58
2019-04-14T19:32:26.263Z,11.55
2019-04-14T19:34:55.713Z,11.46
2019-04-14T19:37:25.166Z,11.44
2019-04-14T19:39:54.503Z,11.51
2019-04-14T19:42:24.977Z,11.47
2019-04-14T19:44:54.343Z,11.45
2019-04-14T19:47:23.728Z,11.40
2019-04-14T19:49:53.181Z,11.44
2019-04-14T19:52:22.555Z,11.37
2019-04-14T19:54:51.989Z,11.30
2019-04-14T19:57:21.425Z,11.34
2019-04-14T19:59:50.780Z,11.39
2019-04-14T20:02:20.117Z,11.35
2019-04-14T20:04:49.485Z,11.27
2019-04-14T20:07:18.917Z,11.29
2019-04-14T20:09:48.350Z,11.30
2019-04-14T20:12:17.785Z,11.29
2019-04-14T20:14:47.235Z,11.21
2019-04-14T20:19:56.947Z,11.36
2019-04-14T20:22:27.935Z,11.39
2019-04-14T20:25:01.824Z,11.31
2019-04-14T20:27:47.920Z,11.40
2019-04-14T20:30:18.961Z,11.41
2019-04-14T20:32:49.877Z,11.38
2019-04-14T20:35:19.405Z,11.33
2019-04-14T20:37:48.753Z,11.37
2019-04-14T20:40:18.349Z,11.28
2019-04-14T20:42:47.720Z,11.31
2019-04-14T20:45:17.635Z,11.21
2019-04-14T20:47:47.088Z,11.18
2019-04-14T20:50:16.639Z,11.15
2019-04-14T20:52:46.167Z,11.19
2019-04-14T20:55:15.528Z,11.21
2019-04-14T20:57:44.878Z,11.26
2019-04-14T21:00:14.413Z,11.26
2019-04-14T21:02:48.510Z,11.21
2019-04-14T21:10:54.036Z,11.21
2019-04-14T21:13:31.040Z,11.21
2019-04-14T21:16:12.207Z,11.27
2019-04-14T21:21:13.663Z,11.33
2019-04-14T21:23:44.662Z,11.37
2019-04-14T21:31:52.662Z,11.28
2019-04-14T21:34:23.689Z,11.13
2019-04-14T21:37:11.145Z,11.05
2019-04-14T21:39:42.155Z,11.05
2019-04-14T21:42:11.574Z,10.89
2019-04-14T21:44:40.923Z,10.89
2019-04-14T21:47:10.341Z,10.96
2019-04-14T21:49:39.690Z,11.07
2019-04-14T21:52:10.674Z,11.14
2019-04-14T21:54:41.678Z,11.07
2019-04-14T21:57:29.215Z,10.94
2019-04-14T22:00:16.788Z,10.91
2019-04-14T22:05:52.703Z,10.86
2019-04-14T22:08:25.206Z,10.80
2019-04-14T22:10:56.414Z,10.66
2019-04-14T22:13:25.837Z,10.65
2019-04-14T22:15:55.329Z,10.55
2019-04-14T22:18:24.632Z,10.46
2019-04-14T22:20:53.984Z,10.41
2019-04-14T22:23:23.429Z,10.34
2019-04-14T22:25:52.805Z,10.34
2019-04-14T22:28:22.494Z,10.33
2019-04-14T22:30:51.906Z,10.34
2019-04-14T22:33:21.331Z,10.27
2019-04-14T22:35:50.684Z,10.24
2019-04-14T22:38:20.029Z,10.09
2019-04-14T22:40:49.382Z,10.18
2019-04-14T22:43:18.726Z,10.23
2019-04-14T22:45:48.147Z,10.21
2019-04-14T22:48:17.508Z,10.27
2019-04-14T22:50:46.866Z,10.31
2019-04-14T22:53:16.213Z,10.28
2019-04-14T22:55:45.564Z,10.24
2019-04-14T22:58:14.981Z,10.22
2019-04-14T23:06:23.713Z,10.18
2019-04-14T23:09:06.714Z,10.14
2019-04-14T23:11:37.717Z,10.15
2019-04-14T23:17:17.453Z,10.13
2019-04-14T23:22:56.443Z,10.22
2019-04-14T23:25:25.867Z,10.13
2019-04-14T23:27:55.287Z,10.15
2019-04-14T23:30:24.631Z,10.12
2019-04-14T23:32:53.981Z,10.03
2019-04-14T23:35:23.339Z,10.06
2019-04-14T23:37:52.676Z,10.12
2019-04-14T23:40:22.092Z,10.19
2019-04-14T23:42:51.509Z,10.11
2019-04-14T23:45:20.922Z,10.20
2019-04-14T23:47:50.261Z,10.17
2019-04-14T23:50:19.684Z,10.21
2019-04-14T23:52:49.112Z,10.23
2019-04-14T23:55:18.515Z,10.22
2019-04-14T23:57:47.936Z,10.18
